sensor_id;sensor_type;location;lat;lon;timestamp;pressure;altitude;pressure_sealevel;temperature;humidity
38616;BME280;24370;51.986;4.666;2023-05-03T00:01:36;103060.03;;;16.19;40.87
38616;BME280;24370;51.986;4.666;2023-05-03T00:04:01;103051.03;;;15.61;41.91
38616;BME280;24370;51.986;4.666;2023-05-03T00:06:27;103052.94;;;15.96;41.46
38616;BME280;24370;51.986;4.666;2023-05-03T00:08:53;103051.16;;;15.89;41.60
38616;BME280;24370;51.986;4.666;2023-05-03T00:11:18;103048.53;;;15.87;41.58
38616;BME280;24370;51.986;4.666;2023-05-03T00:13:44;103051.97;;;15.77;41.79
38616;BME280;24370;51.986;4.666;2023-05-03T00:16:10;103040.50;;;15.61;43.28
38616;BME280;24370;51.986;4.666;2023-05-03T00:18:35;103046.75;;;15.89;42.21
38616;BME280;24370;51.986;4.666;2023-05-03T00:21:00;103051.84;;;15.49;42.97
38616;BME280;24370;51.986;4.666;2023-05-03T00:23:26;103042.22;;;15.56;43.42
38616;BME280;24370;51.986;4.666;2023-05-03T00:25:56;103045.72;;;15.56;42.35
38616;BME280;24370;51.986;4.666;2023-05-03T00:28:23;103040.47;;;15.56;41.65
38616;BME280;24370;51.986;4.666;2023-05-03T00:30:49;103039.69;;;15.76;42.46
38616;BME280;24370;51.986;4.666;2023-05-03T00:33:15;103036.53;;;14.82;43.59
38616;BME280;24370;51.986;4.666;2023-05-03T00:35:41;103034.75;;;14.74;43.00
38616;BME280;24370;51.986;4.666;2023-05-03T00:38:06;103028.94;;;15.30;42.68
38616;BME280;24370;51.986;4.666;2023-05-03T00:40:31;103038.72;;;15.60;41.56
38616;BME280;24370;51.986;4.666;2023-05-03T00:42:57;103042.19;;;15.47;42.66
38616;BME280;24370;51.986;4.666;2023-05-03T00:45:22;103035.13;;;15.36;42.22
38616;BME280;24370;51.986;4.666;2023-05-03T00:47:48;103034.28;;;15.43;41.45
38616;BME280;24370;51.986;4.666;2023-05-03T00:50:13;103029.91;;;15.55;41.45
38616;BME280;24370;51.986;4.666;2023-05-03T00:52:39;103041.38;;;15.63;41.71
38616;BME280;24370;51.986;4.666;2023-05-03T00:55:06;103035.34;;;15.84;40.72
38616;BME280;24370;51.986;4.666;2023-05-03T00:57:32;103043.28;;;15.95;40.70
38616;BME280;24370;51.986;4.666;2023-05-03T00:59:57;103044.84;;;15.51;41.07
38616;BME280;24370;51.986;4.666;2023-05-03T01:02:26;103045.78;;;15.67;41.71
38616;BME280;24370;51.986;4.666;2023-05-03T01:04:53;103040.41;;;15.39;41.21
38616;BME280;24370;51.986;4.666;2023-05-03T01:12:52;103040.38;;;15.36;41.48
38616;BME280;24370;51.986;4.666;2023-05-03T01:15:56;103043.03;;;15.35;41.32
38616;BME280;24370;51.986;4.666;2023-05-03T01:18:29;103049.28;;;15.63;41.22
38616;BME280;24370;51.986;4.666;2023-05-03T01:20:58;103040.50;;;15.64;41.17
38616;BME280;24370;51.986;4.666;2023-05-03T01:25:58;103045.72;;;15.52;41.76
38616;BME280;24370;51.986;4.666;2023-05-03T01:28:24;103049.56;;;14.63;42.64
38616;BME280;24370;51.986;4.666;2023-05-03T01:30:51;103041.06;;;15.01;42.23
38616;BME280;24370;51.986;4.666;2023-05-03T01:35:54;103043.88;;;15.29;41.49
38616;BME280;24370;51.986;4.666;2023-05-03T01:38:22;103038.84;;;14.48;43.01
38616;BME280;24370;51.986;4.666;2023-05-03T01:40:51;103037.75;;;14.21;43.77
38616;BME280;24370;51.986;4.666;2023-05-03T01:43:17;103032.97;;;14.73;43.21
38616;BME280;24370;51.986;4.666;2023-05-03T01:45:43;103028.03;;;15.27;41.63
38616;BME280;24370;51.986;4.666;2023-05-03T01:48:18;103023.44;;;14.92;41.88
38616;BME280;24370;51.986;4.666;2023-05-03T01:50:44;103028.41;;;14.52;42.88
38616;BME280;24370;51.986;4.666;2023-05-03T01:53:10;103028.38;;;14.51;43.12
38616;BME280;24370;51.986;4.666;2023-05-03T01:55:35;103017.16;;;14.67;43.33
38616;BME280;24370;51.986;4.666;2023-05-03T01:58:01;103013.50;;;14.56;42.78
38616;BME280;24370;51.986;4.666;2023-05-03T02:00:26;103007.13;;;14.29;43.37
38616;BME280;24370;51.986;4.666;2023-05-03T02:02:52;102997.75;;;14.62;42.88
38616;BME280;24370;51.986;4.666;2023-05-03T02:05:17;102993.91;;;14.23;44.33
38616;BME280;24370;51.986;4.666;2023-05-03T02:07:43;102983.16;;;13.98;44.32
38616;BME280;24370;51.986;4.666;2023-05-03T02:10:08;102985.13;;;14.18;44.62
38616;BME280;24370;51.986;4.666;2023-05-03T02:12:41;102970.97;;;14.06;44.33
38616;BME280;24370;51.986;4.666;2023-05-03T02:15:07;102977.13;;;14.05;44.64
38616;BME280;24370;51.986;4.666;2023-05-03T02:17:33;102965.81;;;14.17;44.67
38616;BME280;24370;51.986;4.666;2023-05-03T02:19:59;102969.88;;;14.90;43.13
38616;BME280;24370;51.986;4.666;2023-05-03T02:22:24;102973.91;;;14.40;43.65
38616;BME280;24370;51.986;4.666;2023-05-03T02:24:49;102973.41;;;14.91;42.87
38616;BME280;24370;51.986;4.666;2023-05-03T02:27:15;102990.28;;;14.05;44.21
38616;BME280;24370;51.986;4.666;2023-05-03T02:29:41;103007.59;;;13.85;45.06
38616;BME280;24370;51.986;4.666;2023-05-03T02:32:06;102991.34;;;14.26;44.08
38616;BME280;24370;51.986;4.666;2023-05-03T02:34:32;102999.28;;;14.37;44.38
38616;BME280;24370;51.986;4.666;2023-05-03T02:36:57;103006.41;;;14.46;43.85
38616;BME280;24370;51.986;4.666;2023-05-03T02:39:23;102999.03;;;14.07;44.40
38616;BME280;24370;51.986;4.666;2023-05-03T02:41:48;103012.06;;;13.94;44.89
38616;BME280;24370;51.986;4.666;2023-05-03T02:44:14;103021.59;;;13.84;45.16
38616;BME280;24370;51.986;4.666;2023-05-03T02:46:39;103025.22;;;13.98;44.79
38616;BME280;24370;51.986;4.666;2023-05-03T02:49:06;103031.13;;;13.76;44.78
38616;BME280;24370;51.986;4.666;2023-05-03T02:51:32;103021.13;;;13.44;45.83
38616;BME280;24370;51.986;4.666;2023-05-03T02:53:57;103023.91;;;13.57;44.93
38616;BME280;24370;51.986;4.666;2023-05-03T02:56:23;103024.91;;;13.69;44.83
38616;BME280;24370;51.986;4.666;2023-05-03T02:58:51;103013.94;;;14.05;43.72
38616;BME280;24370;51.986;4.666;2023-05-03T03:01:16;103017.03;;;13.69;44.41
38616;BME280;24370;51.986;4.666;2023-05-03T03:03:41;103015.34;;;13.74;44.75
38616;BME280;24370;51.986;4.666;2023-05-03T03:06:07;103017.53;;;13.38;44.49
38616;BME280;24370;51.986;4.666;2023-05-03T03:08:32;103008.84;;;13.44;45.11
38616;BME280;24370;51.986;4.666;2023-05-03T03:10:58;103010.75;;;13.56;44.40
38616;BME280;24370;51.986;4.666;2023-05-03T03:13:23;103022.66;;;13.32;44.88
38616;BME280;24370;51.986;4.666;2023-05-03T03:15:48;103021.06;;;14.20;43.67
38616;BME280;24370;51.986;4.666;2023-05-03T03:18:14;103030.19;;;13.69;43.54
38616;BME280;24370;51.986;4.666;2023-05-03T03:20:39;103030.75;;;13.45;44.10
38616;BME280;24370;51.986;4.666;2023-05-03T03:23:04;103025.91;;;13.79;44.02
38616;BME280;24370;51.986;4.666;2023-05-03T03:25:30;103028.50;;;13.76;44.00
38616;BME280;24370;51.986;4.666;2023-05-03T03:27:55;103023.84;;;14.34;42.69
38616;BME280;24370;51.986;4.666;2023-05-03T03:30:21;103036.31;;;13.71;44.08
38616;BME280;24370;51.986;4.666;2023-05-03T03:32:46;103026.31;;;13.40;43.94
38616;BME280;24370;51.986;4.666;2023-05-03T03:35:12;103030.47;;;13.24;43.75
38616;BME280;24370;51.986;4.666;2023-05-03T03:37:38;103030.34;;;13.83;43.10
38616;BME280;24370;51.986;4.666;2023-05-03T03:40:04;103013.97;;;14.12;42.54
38616;BME280;24370;51.986;4.666;2023-05-03T03:42:32;103012.53;;;14.48;41.69
38616;BME280;24370;51.986;4.666;2023-05-03T03:44:57;103021.59;;;13.84;42.80
38616;BME280;24370;51.986;4.666;2023-05-03T03:47:23;103025.47;;;14.21;42.76
38616;BME280;24370;51.986;4.666;2023-05-03T03:49:48;103033.59;;;13.60;42.95
38616;BME280;24370;51.986;4.666;2023-05-03T03:52:13;103033.63;;;13.65;43.22
38616;BME280;24370;51.986;4.666;2023-05-03T03:54:39;103032.13;;;13.87;43.13
38616;BME280;24370;51.986;4.666;2023-05-03T03:57:04;103025.34;;;14.07;42.46
38616;BME280;24370;51.986;4.666;2023-05-03T03:59:30;103035.13;;;13.46;43.20
38616;BME280;24370;51.986;4.666;2023-05-03T04:01:55;103045.28;;;13.21;44.31
38616;BME280;24370;51.986;4.666;2023-05-03T04:04:21;103053.50;;;13.44;43.67
38616;BME280;24370;51.986;4.666;2023-05-03T04:06:46;103056.59;;;13.80;42.53
38616;BME280;24370;51.986;4.666;2023-05-03T04:09:11;103055.47;;;13.61;42.79
38616;BME280;24370;51.986;4.666;2023-05-03T04:11:38;103064.41;;;13.75;42.69
38616;BME280;24370;51.986;4.666;2023-05-03T04:14:03;103056.41;;;13.03;43.59
38616;BME280;24370;51.986;4.666;2023-05-03T04:16:29;103065.19;;;13.66;42.63
38616;BME280;24370;51.986;4.666;2023-05-03T04:18:54;103065.13;;;14.38;42.50
38616;BME280;24370;51.986;4.666;2023-05-03T04:21:20;103062.53;;;14.48;41.77
38616;BME280;24370;51.986;4.666;2023-05-03T04:23:45;103069.09;;;14.02;41.75
38616;BME280;24370;51.986;4.666;2023-05-03T04:26:11;103067.69;;;14.35;41.61
38616;BME280;24370;51.986;4.666;2023-05-03T04:28:36;103064.06;;;14.21;41.82
38616;BME280;24370;51.986;4.666;2023-05-03T04:31:03;103060.78;;;13.67;42.90
38616;BME280;24370;51.986;4.666;2023-05-03T04:33:29;103068.28;;;14.06;42.73
38616;BME280;24370;51.986;4.666;2023-05-03T04:35:55;103061.41;;;14.19;41.27
38616;BME280;24370;51.986;4.666;2023-05-03T04:38:21;103055.38;;;14.31;41.51
38616;BME280;24370;51.986;4.666;2023-05-03T04:40:46;103055.88;;;13.95;42.19
38616;BME280;24370;51.986;4.666;2023-05-03T04:43:12;103053.75;;;14.46;41.55
38616;BME280;24370;51.986;4.666;2023-05-03T04:45:37;103055.19;;;14.10;41.59
38616;BME280;24370;51.986;4.666;2023-05-03T04:48:04;103054.84;;;14.65;40.96
38616;BME280;24370;51.986;4.666;2023-05-03T04:50:30;103054.34;;;14.14;41.91
38616;BME280;24370;51.986;4.666;2023-05-03T04:52:55;103060.31;;;13.97;42.00
38616;BME280;24370;51.986;4.666;2023-05-03T04:55:20;103060.00;;;13.72;42.62
38616;BME280;24370;51.986;4.666;2023-05-03T04:57:46;103059.34;;;13.89;42.62
38616;BME280;24370;51.986;4.666;2023-05-03T05:00:12;103055.06;;;13.99;42.04
38616;BME280;24370;51.986;4.666;2023-05-03T05:02:38;103057.25;;;13.63;42.82
38616;BME280;24370;51.986;4.666;2023-05-03T05:05:04;103059.66;;;14.21;42.07
38616;BME280;24370;51.986;4.666;2023-05-03T05:07:29;103063.03;;;14.08;42.27
38616;BME280;24370;51.986;4.666;2023-05-03T05:09:54;103065.28;;;13.72;42.76
38616;BME280;24370;51.986;4.666;2023-05-03T05:12:20;103067.13;;;13.83;42.99
38616;BME280;24370;51.986;4.666;2023-05-03T05:14:45;103064.63;;;13.94;42.44
38616;BME280;24370;51.986;4.666;2023-05-03T05:17:11;103072.56;;;13.98;41.98
38616;BME280;24370;51.986;4.666;2023-05-03T05:19:36;103067.66;;;14.32;41.28
38616;BME280;24370;51.986;4.666;2023-05-03T05:22:01;103073.66;;;14.19;41.61
38616;BME280;24370;51.986;4.666;2023-05-03T05:24:27;103073.38;;;13.91;41.75
38616;BME280;24370;51.986;4.666;2023-05-03T05:26:52;103072.09;;;13.58;42.31
38616;BME280;24370;51.986;4.666;2023-05-03T05:29:18;103070.94;;;13.37;43.02
38616;BME280;24370;51.986;4.666;2023-05-03T05:31:43;103070.59;;;13.79;42.14
38616;BME280;24370;51.986;4.666;2023-05-03T05:34:08;103072.03;;;13.52;42.41
38616;BME280;24370;51.986;4.666;2023-05-03T05:36:34;103070.38;;;13.60;43.03
38616;BME280;24370;51.986;4.666;2023-05-03T05:38:59;103082.09;;;13.90;41.92
38616;BME280;24370;51.986;4.666;2023-05-03T05:41:25;103079.72;;;14.12;41.40
38616;BME280;24370;51.986;4.666;2023-05-03T05:43:50;103086.16;;;13.63;42.13
38616;BME280;24370;51.986;4.666;2023-05-03T05:46:16;103091.59;;;13.76;41.93
38616;BME280;24370;51.986;4.666;2023-05-03T05:48:41;103085.56;;;13.87;41.57
38616;BME280;24370;51.986;4.666;2023-05-03T05:51:08;103089.34;;;13.40;41.93
38616;BME280;24370;51.986;4.666;2023-05-03T05:53:33;103091.38;;;14.35;40.85
38616;BME280;24370;51.986;4.666;2023-05-03T05:55:58;103085.81;;;14.07;41.11
38616;BME280;24370;51.986;4.666;2023-05-03T05:58:24;103087.69;;;15.18;39.43
38616;BME280;24370;51.986;4.666;2023-05-03T06:00:49;103087.03;;;14.37;40.20
38616;BME280;24370;51.986;4.666;2023-05-03T06:03:15;103081.84;;;14.47;41.04
38616;BME280;24370;51.986;4.666;2023-05-03T06:05:41;103090.22;;;14.10;40.83
38616;BME280;24370;51.986;4.666;2023-05-03T06:08:06;103088.25;;;13.89;41.82
38616;BME280;24370;51.986;4.666;2023-05-03T06:10:32;103076.19;;;15.03;39.51
38616;BME280;24370;51.986;4.666;2023-05-03T06:12:58;103065.72;;;15.13;39.31
38616;BME280;24370;51.986;4.666;2023-05-03T06:15:23;103080.16;;;14.55;40.35
38616;BME280;24370;51.986;4.666;2023-05-03T06:17:48;103070.88;;;14.99;40.42
38616;BME280;24370;51.986;4.666;2023-05-03T06:20:14;103066.31;;;14.71;40.74
38616;BME280;24370;51.986;4.666;2023-05-03T06:22:40;103081.63;;;15.33;40.23
38616;BME280;24370;51.986;4.666;2023-05-03T06:25:06;103078.22;;;15.52;39.42
38616;BME280;24370;51.986;4.666;2023-05-03T06:27:32;103083.91;;;14.75;40.54
38616;BME280;24370;51.986;4.666;2023-05-03T06:29:57;103073.16;;;15.91;39.27
38616;BME280;24370;51.986;4.666;2023-05-03T06:32:22;103075.88;;;16.34;38.07
38616;BME280;24370;51.986;4.666;2023-05-03T06:34:48;103079.50;;;14.74;40.27
38616;BME280;24370;51.986;4.666;2023-05-03T06:37:14;103079.78;;;15.13;40.71
38616;BME280;24370;51.986;4.666;2023-05-03T06:39:39;103066.88;;;15.64;40.25
38616;BME280;24370;51.986;4.666;2023-05-03T06:42:05;103069.38;;;15.36;39.39
38616;BME280;24370;51.986;4.666;2023-05-03T06:44:31;103076.41;;;14.28;40.59
38616;BME280;24370;51.986;4.666;2023-05-03T06:46:57;103065.13;;;14.40;40.89
38616;BME280;24370;51.986;4.666;2023-05-03T06:49:22;103071.84;;;14.12;41.27
38616;BME280;24370;51.986;4.666;2023-05-03T06:51:47;103059.75;;;14.31;40.98
38616;BME280;24370;51.986;4.666;2023-05-03T06:54:13;103054.69;;;15.86;39.11
38616;BME280;24370;51.986;4.666;2023-05-03T06:56:39;103054.44;;;17.98;34.71
38616;BME280;24370;51.986;4.666;2023-05-03T06:59:04;103050.75;;;19.26;32.15
38616;BME280;24370;51.986;4.666;2023-05-03T07:01:30;103045.31;;;19.34;31.71
38616;BME280;24370;51.986;4.666;2023-05-03T07:03:56;103042.97;;;21.82;29.49
38616;BME280;24370;51.986;4.666;2023-05-03T07:06:22;103031.09;;;23.02;27.36
38616;BME280;24370;51.986;4.666;2023-05-03T07:08:52;103033.09;;;23.57;27.33
38616;BME280;24370;51.986;4.666;2023-05-03T07:11:19;103030.16;;;24.23;25.89
38616;BME280;24370;51.986;4.666;2023-05-03T07:13:51;103033.72;;;24.77;24.93
38616;BME280;24370;51.986;4.666;2023-05-03T07:16:17;103033.94;;;23.87;25.34
38616;BME280;24370;51.986;4.666;2023-05-03T07:18:43;103027.31;;;24.54;24.97
38616;BME280;24370;51.986;4.666;2023-05-03T07:21:08;103022.22;;;24.48;24.39
38616;BME280;24370;51.986;4.666;2023-05-03T07:23:34;103017.09;;;24.93;23.70
38616;BME280;24370;51.986;4.666;2023-05-03T07:25:59;103014.50;;;24.91;23.95
38616;BME280;24370;51.986;4.666;2023-05-03T07:28:25;103010.03;;;26.50;22.60
38616;BME280;24370;51.986;4.666;2023-05-03T07:30:50;103015.41;;;25.39;23.44
38616;BME280;24370;51.986;4.666;2023-05-03T07:33:16;103018.28;;;25.09;23.14
38616;BME280;24370;51.986;4.666;2023-05-03T07:35:44;103011.31;;;25.74;22.55
38616;BME280;24370;51.986;4.666;2023-05-03T07:38:10;103012.19;;;24.53;23.07
38616;BME280;24370;51.986;4.666;2023-05-03T07:40:35;103003.66;;;24.94;22.80
38616;BME280;24370;51.986;4.666;2023-05-03T07:43:01;103011.59;;;24.45;23.45
38616;BME280;24370;51.986;4.666;2023-05-03T07:45:27;102997.56;;;25.62;22.55
38616;BME280;24370;51.986;4.666;2023-05-03T07:47:53;102985.94;;;25.85;22.59
38616;BME280;24370;51.986;4.666;2023-05-03T07:50:18;102996.53;;;25.18;22.58
38616;BME280;24370;51.986;4.666;2023-05-03T07:52:44;102990.84;;;25.96;22.14
38616;BME280;24370;51.986;4.666;2023-05-03T07:55:09;102992.16;;;25.85;22.64
38616;BME280;24370;51.986;4.666;2023-05-03T07:57:34;102997.91;;;27.22;20.80
38616;BME280;24370;51.986;4.666;2023-05-03T08:00:00;103004.63;;;24.68;23.36
38616;BME280;24370;51.986;4.666;2023-05-03T08:02:26;103006.78;;;25.99;22.59
38616;BME280;24370;51.986;4.666;2023-05-03T08:04:52;103003.66;;;26.52;21.89
38616;BME280;24370;51.986;4.666;2023-05-03T08:07:19;103011.16;;;26.44;22.29
38616;BME280;24370;51.986;4.666;2023-05-03T08:09:44;103013.38;;;27.74;21.05
38616;BME280;24370;51.986;4.666;2023-05-03T08:12:09;103006.16;;;27.74;20.53
38616;BME280;24370;51.986;4.666;2023-05-03T08:14:35;102992.09;;;26.52;22.04
38616;BME280;24370;51.986;4.666;2023-05-03T08:17:01;102985.03;;;26.29;22.33
38616;BME280;24370;51.986;4.666;2023-05-03T08:19:29;102988.84;;;26.23;22.09
38616;BME280;24370;51.986;4.666;2023-05-03T08:21:54;102996.00;;;26.22;21.59
38616;BME280;24370;51.986;4.666;2023-05-03T08:24:19;102987.16;;;27.22;21.40
38616;BME280;24370;51.986;4.666;2023-05-03T08:26:46;102993.94;;;28.40;20.80
38616;BME280;24370;51.986;4.666;2023-05-03T08:29:13;102996.34;;;27.37;20.60
38616;BME280;24370;51.986;4.666;2023-05-03T08:31:38;102990.16;;;27.90;20.80
38616;BME280;24370;51.986;4.666;2023-05-03T08:34:04;102988.78;;;28.18;19.43
38616;BME280;24370;51.986;4.666;2023-05-03T08:36:31;102999.38;;;29.23;19.16
38616;BME280;24370;51.986;4.666;2023-05-03T08:38:57;102997.47;;;28.41;20.55
38616;BME280;24370;51.986;4.666;2023-05-03T08:41:28;103002.06;;;28.74;19.43
38616;BME280;24370;51.986;4.666;2023-05-03T08:43:55;103009.91;;;27.89;19.07
38616;BME280;24370;51.986;4.666;2023-05-03T08:46:21;103014.09;;;28.14;20.29
38616;BME280;24370;51.986;4.666;2023-05-03T08:48:48;103007.91;;;27.18;19.67
38616;BME280;24370;51.986;4.666;2023-05-03T08:51:16;103021.84;;;26.03;20.85
38616;BME280;24370;51.986;4.666;2023-05-03T08:53:42;103020.56;;;26.12;20.73
38616;BME280;24370;51.986;4.666;2023-05-03T08:56:08;103010.25;;;26.66;20.51
38616;BME280;24370;51.986;4.666;2023-05-03T08:58:35;103008.22;;;27.50;20.73
38616;BME280;24370;51.986;4.666;2023-05-03T09:01:04;103010.31;;;28.18;19.75
38616;BME280;24370;51.986;4.666;2023-05-03T09:03:31;103020.50;;;27.92;18.97
38616;BME280;24370;51.986;4.666;2023-05-03T09:05:56;103007.44;;;28.04;19.53
38616;BME280;24370;51.986;4.666;2023-05-03T09:08:26;103007.31;;;28.77;19.95
38616;BME280;24370;51.986;4.666;2023-05-03T09:10:52;103010.09;;;29.73;19.04
38616;BME280;24370;51.986;4.666;2023-05-03T09:13:18;103006.38;;;30.52;18.54
38616;BME280;24370;51.986;4.666;2023-05-03T09:15:52;103008.97;;;29.45;18.27
38616;BME280;24370;51.986;4.666;2023-05-03T09:18:18;103024.78;;;27.41;19.54
38616;BME280;24370;51.986;4.666;2023-05-03T09:20:45;103021.31;;;29.00;19.09
38616;BME280;24370;51.986;4.666;2023-05-03T09:25:51;103020.81;;;27.29;19.81
38616;BME280;24370;51.986;4.666;2023-05-03T09:28:18;103014.25;;;28.46;19.81
38616;BME280;24370;51.986;4.666;2023-05-03T09:30:45;103011.00;;;28.57;18.71
38616;BME280;24370;51.986;4.666;2023-05-03T09:33:12;103012.69;;;28.07;19.61
38616;BME280;24370;51.986;4.666;2023-05-03T09:36:04;103014.63;;;28.38;20.60
38616;BME280;24370;51.986;4.666;2023-05-03T09:38:34;103009.00;;;28.78;20.18
38616;BME280;24370;51.986;4.666;2023-05-03T09:41:01;103014.34;;;27.90;19.74
38616;BME280;24370;51.986;4.666;2023-05-03T09:43:27;103007.03;;;27.75;20.74
38616;BME280;24370;51.986;4.666;2023-05-03T09:46:07;103006.59;;;27.65;20.33
38616;BME280;24370;51.986;4.666;2023-05-03T09:48:32;103007.16;;;27.91;20.21
38616;BME280;24370;51.986;4.666;2023-05-03T09:50:58;103014.94;;;26.81;20.16
38616;BME280;24370;51.986;4.666;2023-05-03T09:53:25;103002.81;;;27.31;20.32
38616;BME280;24370;51.986;4.666;2023-05-03T09:55:52;103012.22;;;27.02;20.67
38616;BME280;24370;51.986;4.666;2023-05-03T09:58:17;103015.31;;;25.86;22.34
38616;BME280;24370;51.986;4.666;2023-05-03T10:00:43;103016.66;;;25.29;22.25
38616;BME280;24370;51.986;4.666;2023-05-03T10:03:12;103020.19;;;23.43;24.24
38616;BME280;24370;51.986;4.666;2023-05-03T10:05:46;103017.47;;;25.31;23.00
38616;BME280;24370;51.986;4.666;2023-05-03T10:08:27;103009.91;;;25.18;23.35
38616;BME280;24370;51.986;4.666;2023-05-03T10:10:56;103013.25;;;25.49;22.89
38616;BME280;24370;51.986;4.666;2023-05-03T10:13:22;103006.09;;;25.49;23.41
38616;BME280;24370;51.986;4.666;2023-05-03T10:15:52;103000.09;;;25.43;22.64
38616;BME280;24370;51.986;4.666;2023-05-03T10:18:22;102991.06;;;27.15;21.43
38616;BME280;24370;51.986;4.666;2023-05-03T10:21:00;102990.09;;;28.80;20.31
38616;BME280;24370;51.986;4.666;2023-05-03T10:23:26;102992.03;;;27.33;21.17
38616;BME280;24370;51.986;4.666;2023-05-03T10:28:37;102988.34;;;28.27;19.35
38616;BME280;24370;51.986;4.666;2023-05-03T10:31:28;102980.22;;;28.63;19.57
38616;BME280;24370;51.986;4.666;2023-05-03T10:33:51;102990.59;;;28.35;19.77
38616;BME280;24370;51.986;4.666;2023-05-03T10:36:17;102984.34;;;28.00;20.61
38616;BME280;24370;51.986;4.666;2023-05-03T10:38:42;102987.81;;;28.89;20.63
38616;BME280;24370;51.986;4.666;2023-05-03T10:41:08;102981.50;;;28.20;19.55
38616;BME280;24370;51.986;4.666;2023-05-03T10:46:00;102974.00;;;28.96;19.99
38616;BME280;24370;51.986;4.666;2023-05-03T10:48:26;102979.47;;;28.25;20.08
38616;BME280;24370;51.986;4.666;2023-05-03T10:50:53;102982.00;;;28.11;19.63
38616;BME280;24370;51.986;4.666;2023-05-03T10:53:35;102984.75;;;27.73;20.73
38616;BME280;24370;51.986;4.666;2023-05-03T10:56:09;102971.06;;;29.80;19.26
38616;BME280;24370;51.986;4.666;2023-05-03T10:58:36;102959.72;;;29.27;19.13
38616;BME280;24370;51.986;4.666;2023-05-03T11:01:06;102962.50;;;28.76;20.55
38616;BME280;24370;51.986;4.666;2023-05-03T11:03:59;102963.16;;;27.38;21.29
38616;BME280;24370;51.986;4.666;2023-05-03T11:08:53;102955.09;;;28.46;20.18
38616;BME280;24370;51.986;4.666;2023-05-03T11:11:20;102957.72;;;27.01;20.20
38616;BME280;24370;51.986;4.666;2023-05-03T11:13:46;102957.94;;;27.90;20.60
38616;BME280;24370;51.986;4.666;2023-05-03T11:16:12;102952.63;;;27.52;20.58
38616;BME280;24370;51.986;4.666;2023-05-03T11:18:37;102952.09;;;28.52;18.92
38616;BME280;24370;51.986;4.666;2023-05-03T11:21:03;102943.22;;;28.68;20.55
38616;BME280;24370;51.986;4.666;2023-05-03T11:23:28;102941.69;;;28.96;19.48
38616;BME280;24370;51.986;4.666;2023-05-03T11:25:54;102929.41;;;29.55;18.95
38616;BME280;24370;51.986;4.666;2023-05-03T11:28:22;102930.13;;;29.27;19.22
38616;BME280;24370;51.986;4.666;2023-05-03T11:30:47;102926.41;;;28.29;20.36
38616;BME280;24370;51.986;4.666;2023-05-03T11:33:14;102926.78;;;29.22;19.33
38616;BME280;24370;51.986;4.666;2023-05-03T11:35:40;102928.22;;;28.29;19.22
38616;BME280;24370;51.986;4.666;2023-05-03T11:38:06;102930.50;;;27.09;20.06
38616;BME280;24370;51.986;4.666;2023-05-03T11:40:32;102927.47;;;28.42;20.80
38616;BME280;24370;51.986;4.666;2023-05-03T11:42:58;102911.53;;;28.22;21.06
38616;BME280;24370;51.986;4.666;2023-05-03T11:45:31;102918.59;;;27.53;21.06
38616;BME280;24370;51.986;4.666;2023-05-03T11:48:03;102916.34;;;27.98;19.99
38616;BME280;24370;51.986;4.666;2023-05-03T11:50:45;102912.00;;;28.81;19.81
38616;BME280;24370;51.986;4.666;2023-05-03T11:53:11;102914.41;;;26.50;20.53
38616;BME280;24370;51.986;4.666;2023-05-03T11:55:39;102906.84;;;26.19;21.08
38616;BME280;24370;51.986;4.666;2023-05-03T11:58:10;102894.75;;;28.85;19.08
38616;BME280;24370;51.986;4.666;2023-05-03T12:00:36;102892.31;;;29.75;19.60
38616;BME280;24370;51.986;4.666;2023-05-03T12:03:01;102894.19;;;28.45;21.97
38616;BME280;24370;51.986;4.666;2023-05-03T12:05:27;102883.28;;;29.30;20.23
38616;BME280;24370;51.986;4.666;2023-05-03T12:07:54;102880.78;;;27.75;20.99
38616;BME280;24370;51.986;4.666;2023-05-03T12:10:19;102875.25;;;26.46;22.61
38616;BME280;24370;51.986;4.666;2023-05-03T12:12:54;102876.88;;;27.26;21.05
38616;BME280;24370;51.986;4.666;2023-05-03T12:15:28;102866.63;;;26.79;21.24
38616;BME280;24370;51.986;4.666;2023-05-03T12:17:58;102867.19;;;28.13;20.66
38616;BME280;24370;51.986;4.666;2023-05-03T12:20:24;102865.66;;;28.76;20.31
38616;BME280;24370;51.986;4.666;2023-05-03T12:22:51;102861.81;;;28.13;20.81
38616;BME280;24370;51.986;4.666;2023-05-03T12:25:17;102855.72;;;28.09;20.88
38616;BME280;24370;51.986;4.666;2023-05-03T12:27:43;102850.53;;;28.73;20.04
38616;BME280;24370;51.986;4.666;2023-05-03T12:30:09;102853.34;;;27.51;21.21
38616;BME280;24370;51.986;4.666;2023-05-03T12:32:36;102845.69;;;28.13;20.54
38616;BME280;24370;51.986;4.666;2023-05-03T12:35:05;102842.38;;;27.73;22.24
38616;BME280;24370;51.986;4.666;2023-05-03T12:37:31;102839.75;;;29.21;20.44
38616;BME280;24370;51.986;4.666;2023-05-03T12:39:56;102850.28;;;27.93;20.16
38616;BME280;24370;51.986;4.666;2023-05-03T12:42:21;102829.28;;;27.49;21.93
38616;BME280;24370;51.986;4.666;2023-05-03T12:44:47;102831.66;;;27.73;20.88
38616;BME280;24370;51.986;4.666;2023-05-03T12:47:12;102827.13;;;27.56;21.49
38616;BME280;24370;51.986;4.666;2023-05-03T12:49:38;102825.47;;;27.17;20.92
38616;BME280;24370;51.986;4.666;2023-05-03T12:52:04;102822.72;;;26.42;22.29
38616;BME280;24370;51.986;4.666;2023-05-03T12:54:29;102816.75;;;26.16;22.28
38616;BME280;24370;51.986;4.666;2023-05-03T12:56:55;102819.81;;;25.86;23.37
38616;BME280;24370;51.986;4.666;2023-05-03T12:59:20;102822.75;;;26.80;22.10
38616;BME280;24370;51.986;4.666;2023-05-03T13:01:46;102808.34;;;26.03;22.84
38616;BME280;24370;51.986;4.666;2023-05-03T13:04:12;102806.03;;;26.16;23.24
38616;BME280;24370;51.986;4.666;2023-05-03T13:06:37;102798.53;;;26.63;22.18
38616;BME280;24370;51.986;4.666;2023-05-03T13:09:03;102796.41;;;27.07;21.27